Time;durP1;ratioP1;P1;durP2;ratioP2;P2;SDS_P1;SDS_P2;PMS_P1;PMS_P2;Temp;Humidity;BMP_temperature;BMP_pressure;BME280_temperature;BME280_humidity;BME280_pressure;Samples;Min_cycle;Max_cycle;Signal;HPM_P1;HPM_P2
2023/03/18 00:00:33;;;;;;;32.95;22.27;;;;;;;6.54;83.03;95572.81;4950258;28;20047;-66
2023/03/18 00:02:58;;;;;;;23.45;19.00;;;;;;;6.50;83.26;95561.72;4952123;28;20047;-66
2023/03/18 00:05:24;;;;;;;20.75;14.27;;;;;;;6.51;83.61;95567.81;4952155;28;20031;-66
2023/03/18 00:07:49;;;;;;;20.55;15.48;;;;;;;6.43;85.24;95565.78;4951881;28;20079;-66
2023/03/18 00:10:15;;;;;;;19.52;15.20;;;;;;;6.35;84.77;95562.94;4951161;28;20480;-66
2023/03/18 00:12:41;;;;;;;24.00;16.95;;;;;;;6.28;85.61;95567.81;4950945;28;20035;-66
2023/03/18 00:15:09;;;;;;;18.90;14.13;;;;;;;6.15;87.07;95565.31;4951434;28;20523;-66
2023/03/18 00:17:36;;;;;;;22.75;15.45;;;;;;;6.10;86.11;95554.38;4948363;28;20094;-66
2023/03/18 00:20:05;;;;;;;20.90;14.48;;;;;;;6.07;86.67;95571.13;4956958;28;20038;-66
2023/03/18 00:22:36;;;;;;;18.17;14.13;;;;;;;6.01;87.74;95566.38;4946387;28;20115;-66
2023/03/18 00:25:04;;;;;;;19.33;12.35;;;;;;;6.01;86.62;95569.81;4951561;28;20031;-66
2023/03/18 00:27:30;;;;;;;12.25;8.60;;;;;;;5.98;85.91;95561.34;4954082;28;20038;-66
2023/03/18 00:29:56;;;;;;;7.93;6.03;;;;;;;5.96;85.09;95569.28;4952397;28;20519;-66
2023/03/18 00:32:22;;;;;;;10.25;8.07;;;;;;;5.95;85.27;95562.41;4948815;28;20047;-66
2023/03/18 00:34:48;;;;;;;8.82;7.43;;;;;;;5.86;86.27;95566.53;4943097;28;20046;-67
2023/03/18 00:37:18;;;;;;;10.95;7.80;;;;;;;5.81;86.71;95560.84;4954197;28;20038;-66
2023/03/18 00:39:45;;;;;;;11.57;8.07;;;;;;;5.77;86.59;95558.56;4951759;28;20443;-67
2023/03/18 00:42:12;;;;;;;9.60;7.40;;;;;;;5.71;86.32;95558.09;4943237;28;20039;-66
2023/03/18 00:44:38;;;;;;;10.25;8.02;;;;;;;5.71;87.39;95542.41;4945556;28;20087;-66
2023/03/18 00:47:04;;;;;;;9.77;8.38;;;;;;;5.63;88.42;95547.38;4953254;28;20074;-66
2023/03/18 00:49:30;;;;;;;10.63;8.05;;;;;;;5.61;88.28;95543.22;4941884;28;20032;-66
2023/03/18 00:51:55;;;;;;;11.13;8.55;;;;;;;5.56;88.74;95540.94;4945263;28;20027;-66
2023/03/18 00:54:21;;;;;;;8.93;6.55;;;;;;;5.55;88.06;95541.91;4945626;28;20039;-66
2023/03/18 00:56:46;;;;;;;7.72;6.32;;;;;;;5.56;88.38;95540.94;4948517;28;20034;-66
2023/03/18 00:59:12;;;;;;;13.70;6.38;;;;;;;5.51;88.72;95533.44;4946482;28;20497;-66
2023/03/18 01:01:38;;;;;;;9.35;8.02;;;;;;;5.48;89.67;95538.91;4950832;28;20023;-66
2023/03/18 01:04:05;;;;;;;13.90;8.07;;;;;;;5.42;90.15;95531.53;4949771;28;20460;-66
2023/03/18 01:06:32;;;;;;;12.50;8.68;;;;;;;5.39;91.01;95529.97;4954467;28;20036;-67
2023/03/18 01:09:00;;;;;;;9.68;7.88;;;;;;;5.40;90.04;95536.03;4951529;28;20032;-66
2023/03/18 01:11:26;;;;;;;9.57;7.75;;;;;;;5.56;87.90;95530.50;4955681;28;20062;-66
2023/03/18 01:13:52;;;;;;;8.38;7.20;;;;;;;5.53;88.59;95520.28;4958358;28;20073;-66
2023/03/18 01:16:18;;;;;;;10.38;7.40;;;;;;;5.51;88.23;95523.00;4954558;28;20027;-66
2023/03/18 01:18:44;;;;;;;11.90;7.45;;;;;;;5.43;88.65;95525.38;4954341;28;20047;-66
2023/03/18 01:21:10;;;;;;;9.48;7.25;;;;;;;5.39;88.63;95513.50;4947042;28;20412;-66
2023/03/18 01:23:37;;;;;;;7.25;6.28;;;;;;;5.36;89.07;95505.88;4957186;28;20019;-66
2023/03/18 01:26:03;;;;;;;7.90;6.10;;;;;;;5.32;89.20;95512.28;4950161;28;20027;-66
2023/03/18 01:28:29;;;;;;;5.70;5.03;;;;;;;5.27;89.06;95510.81;4944132;28;20055;-66
2023/03/18 01:30:56;;;;;;;6.72;5.40;;;;;;;5.24;88.90;95511.06;4951286;28;20062;-66
2023/03/18 01:33:23;;;;;;;8.60;4.60;;;;;;;5.19;89.05;95507.13;4948731;28;20123;-66
2023/03/18 01:35:58;;;;;;;5.95;4.78;;;;;;;5.12;89.83;95497.13;4952594;28;20034;-66
2023/03/18 01:38:29;;;;;;;6.47;5.18;;;;;;;5.05;90.16;95505.53;4950174;28;20034;-66
2023/03/18 01:40:55;;;;;;;6.15;4.50;;;;;;;5.01;90.21;95494.50;4955689;28;20343;-66
2023/03/18 01:43:25;;;;;;;6.25;4.25;;;;;;;4.94;91.21;95495.88;4951524;28;20791;-66
2023/03/18 01:45:53;;;;;;;5.38;4.25;;;;;;;4.86;91.64;95497.28;4949906;28;20046;-66
2023/03/18 01:48:22;;;;;;;7.00;4.40;;;;;;;4.82;91.51;95495.84;4956290;28;20031;-66
2023/03/18 01:51:10;;;;;;;6.13;4.18;;;;;;;4.82;91.76;95484.56;4955155;28;20106;-66
2023/03/18 01:53:40;;;;;;;10.98;4.53;;;;;;;4.79;91.44;95488.25;4950372;28;20040;-66
2023/03/18 01:56:07;;;;;;;5.60;4.30;;;;;;;4.73;91.85;95476.47;4943997;28;20118;-66
2023/03/18 01:58:41;;;;;;;5.25;4.47;;;;;;;4.68;92.04;95478.59;4953835;28;20038;-66
2023/03/18 02:01:19;;;;;;;4.78;3.83;;;;;;;4.68;91.89;95483.78;4953842;28;20054;-66
2023/03/18 02:03:47;;;;;;;4.80;4.05;;;;;;;4.68;91.85;95475.97;4950963;28;20377;-66
2023/03/18 02:06:12;;;;;;;9.30;4.10;;;;;;;4.68;91.72;95478.59;4946026;28;20034;-66
2023/03/18 02:08:39;;;;;;;5.88;4.00;;;;;;;4.64;91.27;95486.72;4949613;28;20039;-66
2023/03/18 02:11:06;;;;;;;4.10;3.80;;;;;;;4.60;91.67;95480.88;4952944;28;20059;-66
2023/03/18 02:13:36;;;;;;;4.80;3.85;;;;;;;4.57;91.74;95475.91;4946288;28;20036;-66
2023/03/18 02:16:06;;;;;;;5.93;3.72;;;;;;;4.53;92.47;95485.75;4957761;28;20349;-66
2023/03/18 02:18:44;;;;;;;4.25;3.47;;;;;;;4.49;92.41;95484.25;4947329;28;20031;-66
2023/03/18 02:21:36;;;;;;;8.10;3.95;;;;;;;4.50;92.34;95480.72;4955130;28;20047;-66
2023/03/18 02:24:08;;;;;;;4.57;4.07;;;;;;;4.52;91.79;95468.41;4955457;28;20054;-66
2023/03/18 02:26:57;;;;;;;9.93;4.20;;;;;;;4.50;91.34;95472.06;4952056;28;20047;-66
2023/03/18 02:29:26;;;;;;;7.53;3.85;;;;;;;4.52;91.83;95472.78;4945702;28;20038;-66
2023/03/18 02:31:53;;;;;;;8.23;4.10;;;;;;;4.50;93.73;95472.91;4947969;28;20035;-66
2023/03/18 02:34:22;;;;;;;4.68;3.70;;;;;;;4.44;92.81;95470.72;4951661;28;20095;-66
2023/03/18 02:36:47;;;;;;;5.35;3.72;;;;;;;4.34;94.13;95465.34;4953151;28;20035;-66
2023/03/18 02:39:14;;;;;;;4.97;4.57;;;;;;;4.29;94.91;95464.84;4950834;28;20027;-66
2023/03/18 02:41:40;;;;;;;5.57;4.00;;;;;;;4.26;94.89;95471.09;4951791;28;20579;-66
2023/03/18 02:44:06;;;;;;;4.53;4.15;;;;;;;4.26;94.10;95465.88;4956231;28;20433;-66
2023/03/18 02:46:46;;;;;;;4.15;3.75;;;;;;;4.22;94.77;95468.84;4958504;28;20463;-66
2023/03/18 02:49:13;;;;;;;4.55;3.70;;;;;;;4.25;93.41;95477.25;4952221;28;20121;-66
2023/03/18 02:51:39;;;;;;;6.22;3.92;;;;;;;4.26;94.22;95476.31;4949347;28;20031;-66
2023/03/18 02:54:06;;;;;;;6.68;3.65;;;;;;;4.21;95.62;95481.03;4951646;28;20039;-66
2023/03/18 02:56:32;;;;;;;6.55;3.65;;;;;;;4.09;96.13;95485.31;4947153;28;20460;-67
2023/03/18 02:58:57;;;;;;;8.50;4.55;;;;;;;4.06;96.47;95487.28;4949779;28;20031;-66
2023/03/18 03:01:23;;;;;;;5.28;4.18;;;;;;;4.03;96.87;95495.31;4945191;28;20142;-66
2023/03/18 03:03:50;;;;;;;5.55;4.40;;;;;;;4.04;96.07;95499.59;4949958;28;20031;-66
2023/03/18 03:06:16;;;;;;;5.13;3.58;;;;;;;3.97;96.97;95493.97;4948594;28;20461;-66
2023/03/18 03:08:41;;;;;;;7.28;3.97;;;;;;;3.95;96.10;95503.66;4949191;28;20086;-66
2023/03/18 03:11:07;;;;;;;6.07;3.88;;;;;;;3.92;96.46;95496.06;4945521;28;20027;-66
2023/03/18 03:13:33;;;;;;;6.68;4.15;;;;;;;3.97;95.46;95507.00;4952144;28;20043;-66
2023/03/18 03:15:59;;;;;;;3.97;3.38;;;;;;;4.00;94.70;95506.81;4954318;28;20042;-66
2023/03/18 03:18:25;;;;;;;5.07;3.67;;;;;;;3.91;95.51;95503.06;4944251;28;20035;-66
2023/03/18 03:20:51;;;;;;;4.45;3.88;;;;;;;3.86;95.68;95503.38;4951451;28;20046;-66
2023/03/18 03:23:16;;;;;;;3.88;3.50;;;;;;;3.86;95.54;95502.53;4952132;28;20472;-66
2023/03/18 03:25:46;;;;;;;3.88;3.42;;;;;;;3.89;95.11;95510.16;4949746;28;20039;-66
2023/03/18 03:28:13;;;;;;;3.55;3.25;;;;;;;3.84;95.56;95505.25;4946083;28;20027;-66
2023/03/18 03:30:39;;;;;;;4.35;3.55;;;;;;;3.68;97.17;95502.00;4941088;28;20083;-66
2023/03/18 03:33:05;;;;;;;6.22;3.50;;;;;;;3.64;97.94;95506.59;4950989;28;20083;-66
2023/03/18 03:35:31;;;;;;;4.07;3.35;;;;;;;3.67;97.33;95501.19;4949946;28;20027;-66
2023/03/18 03:37:57;;;;;;;6.32;3.65;;;;;;;3.69;97.36;95501.94;4956192;28;20054;-66
2023/03/18 03:40:24;;;;;;;3.40;3.10;;;;;;;3.68;97.43;95499.41;4948160;28;20069;-66
2023/03/18 03:42:50;;;;;;;3.92;3.40;;;;;;;3.65;98.42;95505.69;4945538;28;20031;-66
2023/03/18 03:45:18;;;;;;;4.90;3.45;;;;;;;3.59;98.14;95495.66;4950426;28;20034;-66
2023/03/18 03:47:45;;;;;;;3.58;3.22;;;;;;;3.58;97.99;95492.25;4941819;28;20059;-66
2023/03/18 03:50:11;;;;;;;5.57;3.20;;;;;;;3.62;97.32;95487.63;4954016;28;20027;-66
2023/03/18 03:52:37;;;;;;;3.72;3.30;;;;;;;3.59;98.15;95485.25;4948717;28;20027;-66
2023/03/18 03:55:08;;;;;;;9.52;3.92;;;;;;;3.54;98.83;95477.78;4947821;28;20031;-66
2023/03/18 03:57:34;;;;;;;3.30;3.00;;;;;;;3.52;99.46;95481.41;4949422;28;20043;-66
2023/03/18 04:00:00;;;;;;;5.95;3.67;;;;;;;3.51;99.22;95475.34;4947020;28;20054;-66
2023/03/18 04:02:26;;;;;;;4.18;3.60;;;;;;;3.43;100.00;95473.28;4947323;28;20046;-65
2023/03/18 04:04:52;;;;;;;4.00;3.70;;;;;;;3.45;100.00;95475.78;4947141;28;20111;-65
2023/03/18 04:07:18;;;;;;;4.22;3.53;;;;;;;3.46;100.00;95476.63;4952477;28;20473;-66
2023/03/18 04:09:45;;;;;;;7.10;4.20;;;;;;;3.56;99.79;95477.66;4946680;28;20032;-65
2023/03/18 04:12:11;;;;;;;8.52;3.78;;;;;;;3.51;100.00;95480.56;4950063;28;20499;-65
2023/03/18 04:14:37;;;;;;;6.20;3.58;;;;;;;3.42;100.00;95478.59;4928055;28;20062;-66
2023/03/18 04:17:02;;;;;;;6.60;3.58;;;;;;;3.42;100.00;95483.78;4952826;28;20091;-65
2023/03/18 04:19:29;;;;;;;6.85;4.00;;;;;;;3.42;100.00;95479.41;4951725;28;20558;-66
2023/03/18 04:21:55;;;;;;;5.38;4.28;;;;;;;3.41;100.00;95488.16;4948106;28;21234;-66
2023/03/18 04:24:21;;;;;;;4.05;3.53;;;;;;;3.41;100.00;95482.13;4956458;28;20034;-66
2023/03/18 04:26:47;;;;;;;5.40;3.88;;;;;;;3.37;100.00;95491.09;4948067;28;20035;-66
2023/03/18 04:29:12;;;;;;;5.50;4.28;;;;;;;3.32;100.00;95478.38;4949493;28;20034;-66
2023/03/18 04:31:38;;;;;;;4.57;4.18;;;;;;;3.27;100.00;95489.06;4955314;28;20039;-66
2023/03/18 04:34:03;;;;;;;4.72;4.30;;;;;;;3.25;100.00;95492.72;4955890;28;20047;-66
2023/03/18 04:36:29;;;;;;;7.45;4.03;;;;;;;3.32;100.00;95487.97;4948825;28;20030;-65
2023/03/18 04:38:55;;;;;;;6.25;3.95;;;;;;;3.34;99.72;95489.50;4960415;28;20035;-66
2023/03/18 04:41:21;;;;;;;4.30;3.50;;;;;;;3.27;99.97;95490.84;4959983;28;20031;-66
2023/03/18 04:43:47;;;;;;;4.38;3.97;;;;;;;3.20;100.00;95494.78;4958069;28;20034;-66
2023/03/18 04:46:13;;;;;;;4.22;3.83;;;;;;;3.15;100.00;95495.09;4956459;28;20087;-66
2023/03/18 04:48:40;;;;;;;4.40;4.00;;;;;;;3.12;100.00;95490.09;4959465;28;20396;-66
2023/03/18 04:51:08;;;;;;;9.30;5.03;;;;;;;3.15;100.00;95482.91;4954893;28;20042;-66
2023/03/18 04:53:34;;;;;;;6.32;4.53;;;;;;;3.12;100.00;95482.31;4950270;28;20083;-66
2023/03/18 04:56:00;;;;;;;4.20;3.90;;;;;;;3.04;100.00;95481.97;4956128;28;20167;-66
2023/03/18 04:58:26;;;;;;;4.70;3.75;;;;;;;3.03;100.00;95475.09;4953764;28;20061;-66
2023/03/18 05:00:52;;;;;;;6.50;4.18;;;;;;;3.00;100.00;95468.34;4950171;28;20424;-66
2023/03/18 05:03:18;;;;;;;3.88;3.60;;;;;;;3.04;100.00;95467.19;4959392;28;20027;-66
2023/03/18 05:05:44;;;;;;;5.75;3.85;;;;;;;3.12;100.00;95459.72;4957880;28;20124;-66
2023/03/18 05:08:09;;;;;;;5.38;4.88;;;;;;;3.07;100.00;95463.53;4951607;28;20036;-66
2023/03/18 05:10:35;;;;;;;4.97;4.50;;;;;;;3.01;100.00;95472.59;4948320;28;20027;-66
2023/03/18 05:13:01;;;;;;;3.90;3.60;;;;;;;3.02;100.00;95466.47;4970890;28;20075;-66
2023/03/18 05:15:26;;;;;;;9.98;5.22;;;;;;;3.01;100.00;95473.41;4957991;28;20035;-66
2023/03/18 05:17:52;;;;;;;7.00;4.85;;;;;;;3.12;99.99;95472.72;4946968;28;20373;-65
2023/03/18 05:20:18;;;;;;;7.38;3.88;;;;;;;3.15;100.00;95475.09;4958196;28;20039;-65
2023/03/18 05:22:44;;;;;;;4.18;3.78;;;;;;;3.05;100.00;95487.06;4958537;28;20031;-66
2023/03/18 05:25:12;;;;;;;4.63;4.30;;;;;;;2.97;100.00;95484.13;4968459;28;20110;-66
2023/03/18 05:27:38;;;;;;;4.32;3.90;;;;;;;2.98;100.00;95493.59;4955612;28;20408;-66
2023/03/18 05:30:05;;;;;;;6.05;4.35;;;;;;;2.95;100.00;95492.03;4955242;28;20023;-65
2023/03/18 05:32:31;;;;;;;4.97;3.67;;;;;;;3.14;100.00;95494.25;4966033;28;20038;-65
2023/03/18 05:34:56;;;;;;;3.75;3.45;;;;;;;3.12;100.00;95493.53;4957862;28;20389;-65
2023/03/18 05:37:22;;;;;;;11.23;7.78;;;;;;;3.06;100.00;95499.13;4958203;28;20111;-65
2023/03/18 05:39:48;;;;;;;7.85;7.05;;;;;;;3.01;100.00;95504.63;4949928;28;20035;-65
2023/03/18 05:42:14;;;;;;;6.75;6.03;;;;;;;2.94;100.00;95502.53;4939478;28;20043;-65
2023/03/18 05:44:41;;;;;;;6.15;5.32;;;;;;;2.92;100.00;95502.66;4957351;28;20024;-65
2023/03/18 05:47:07;;;;;;;6.85;5.50;;;;;;;2.96;100.00;95506.72;4953199;28;20043;-65
2023/03/18 05:49:33;;;;;;;7.60;5.05;;;;;;;2.99;100.00;95505.69;4957820;28;20031;-65
2023/03/18 05:51:58;;;;;;;5.72;5.10;;;;;;;2.93;100.00;95506.91;4958451;28;20087;-65
2023/03/18 05:54:24;;;;;;;7.30;6.60;;;;;;;2.93;100.00;95508.66;4958679;28;20104;-65
2023/03/18 05:56:51;;;;;;;11.43;8.60;;;;;;;2.93;100.00;95512.13;4952124;28;20464;-65
2023/03/18 05:59:19;;;;;;;9.77;8.43;;;;;;;2.90;100.00;95512.31;4946701;28;20066;-65
2023/03/18 06:01:45;;;;;;;10.38;7.90;;;;;;;2.93;100.00;95513.88;4936563;28;20060;-65
2023/03/18 06:04:10;;;;;;;8.90;8.10;;;;;;;2.99;100.00;95505.69;4950589;28;20432;-65
2023/03/18 06:06:39;;;;;;;8.40;7.65;;;;;;;3.01;100.00;95512.44;4958270;28;20127;-65
2023/03/18 06:09:05;;;;;;;8.90;8.05;;;;;;;2.97;100.00;95510.13;4958968;28;20035;-65
2023/03/18 06:11:31;;;;;;;9.02;6.70;;;;;;;2.94;100.00;95511.19;4958249;28;20034;-65
2023/03/18 06:13:57;;;;;;;6.57;5.97;;;;;;;2.97;100.00;95510.97;4958588;28;20024;-65
2023/03/18 06:16:22;;;;;;;12.50;7.43;;;;;;;2.98;100.00;95512.66;4953705;28;20495;-65
2023/03/18 06:18:48;;;;;;;9.05;7.00;;;;;;;3.03;100.00;95512.34;4954093;28;20403;-65
2023/03/18 06:21:13;;;;;;;9.32;6.32;;;;;;;3.12;100.00;95518.72;4958481;28;20038;-65
2023/03/18 06:23:38;;;;;;;7.82;6.57;;;;;;;3.12;100.00;95514.34;4956288;28;20027;-65
2023/03/18 06:26:04;;;;;;;9.27;8.38;;;;;;;3.13;100.00;95510.81;4958682;28;20027;-65
2023/03/18 06:28:29;;;;;;;8.00;7.32;;;;;;;3.19;100.00;95513.94;4954345;28;20035;-66
2023/03/18 06:30:56;;;;;;;9.05;7.05;;;;;;;3.24;100.00;95517.09;4952358;28;20028;-65
2023/03/18 06:33:22;;;;;;;7.10;6.47;;;;;;;3.28;100.00;95515.94;4961366;28;20488;-66
2023/03/18 06:35:48;;;;;;;10.23;9.23;;;;;;;3.27;100.00;95502.09;4942992;28;20106;-66
2023/03/18 06:38:15;;;;;;;9.50;8.68;;;;;;;3.29;100.00;95512.41;4942324;28;20062;-65
2023/03/18 06:40:41;;;;;;;10.98;9.30;;;;;;;3.31;100.00;95510.53;4945346;28;20031;-66
2023/03/18 06:43:07;;;;;;;10.90;9.65;;;;;;;3.40;98.90;95511.69;4952436;28;20059;-67
2023/03/18 06:45:33;;;;;;;10.68;9.00;;;;;;;3.46;98.49;95511.28;4955256;28;20472;-65
2023/03/18 06:48:00;;;;;;;12.13;9.68;;;;;;;3.45;98.59;95504.41;4955433;28;20027;-66
2023/03/18 06:50:26;;;;;;;10.20;9.15;;;;;;;3.47;99.40;95501.72;4956395;28;20023;-65
2023/03/18 06:52:51;;;;;;;10.05;8.73;;;;;;;3.52;99.20;95510.84;4955677;28;20027;-65
2023/03/18 06:55:17;;;;;;;8.68;7.88;;;;;;;3.58;98.40;95512.22;4953052;28;20066;-65
2023/03/18 06:57:44;;;;;;;8.82;6.75;;;;;;;3.64;98.16;95501.38;4957526;28;20026;-65
2023/03/18 07:00:10;;;;;;;10.48;6.22;;;;;;;3.69;97.92;95504.53;4953359;28;20051;-65
2023/03/18 07:02:36;;;;;;;11.38;6.30;;;;;;;3.71;98.66;95507.88;4955387;28;20074;-66
2023/03/18 07:05:03;;;;;;;8.07;6.53;;;;;;;3.75;99.54;95502.44;4955855;28;20023;-65
2023/03/18 07:07:29;;;;;;;8.07;7.28;;;;;;;3.78;99.10;95507.44;4955596;28;20030;-65
2023/03/18 07:09:54;;;;;;;8.45;7.25;;;;;;;3.83;98.02;95506.19;4954148;28;20046;-66
2023/03/18 07:12:20;;;;;;;7.18;6.63;;;;;;;3.91;98.09;95510.88;4951458;28;20531;-66
2023/03/18 07:14:45;;;;;;;7.63;6.82;;;;;;;3.96;97.94;95516.59;4932010;28;20169;-65
2023/03/18 07:17:13;;;;;;;8.07;7.00;;;;;;;3.97;98.38;95513.06;4954214;28;20047;-66
2023/03/18 07:19:38;;;;;;;12.25;7.60;;;;;;;4.05;98.44;95511.69;4952478;28;20023;-67
2023/03/18 07:22:04;;;;;;;9.73;7.85;;;;;;;4.18;98.83;95516.88;4956584;28;20061;-66
2023/03/18 07:24:29;;;;;;;14.68;13.18;;;;;;;4.27;97.39;95514.47;4934391;28;20039;-67
2023/03/18 07:26:55;;;;;;;19.20;17.23;;;;;;;4.41;95.98;95504.84;4934352;29;20444;-67
2023/03/18 07:29:20;;;;;;;28.63;26.05;;;;;;;4.53;94.54;95509.19;4953464;28;20380;-66
2023/03/18 07:31:46;;;;;;;20.10;18.15;;;;;;;4.77;93.23;95511.00;4955284;28;20073;-66
2023/03/18 07:34:13;;;;;;;12.82;11.50;;;;;;;5.28;91.53;95511.69;4956277;28;20033;-66
2023/03/18 07:36:39;;;;;;;8.68;5.85;;;;;;;6.09;85.97;95510.91;4953794;28;20062;-67
2023/03/18 07:39:06;;;;;;;11.45;7.28;;;;;;;6.91;83.55;95514.94;4953482;28;20027;-66
2023/03/18 07:41:31;;;;;;;6.25;5.65;;;;;;;7.71;80.89;95510.19;4955960;28;20114;-67
2023/03/18 07:43:57;;;;;;;8.02;5.63;;;;;;;8.51;78.45;95517.47;4954498;28;20122;-67
2023/03/18 07:46:23;;;;;;;5.25;3.75;;;;;;;9.28;71.82;95517.75;4954296;28;20058;-66
2023/03/18 07:48:48;;;;;;;6.15;3.40;;;;;;;9.68;69.72;95515.91;4953372;28;20023;-67
2023/03/18 07:51:14;;;;;;;5.88;4.10;;;;;;;10.21;67.81;95513.69;4954565;28;20136;-68
2023/03/18 07:53:41;;;;;;;4.95;3.50;;;;;;;10.55;64.35;95512.34;4954325;28;20025;-67
2023/03/18 07:56:08;;;;;;;10.65;4.15;;;;;;;10.80;62.18;95513.47;4955695;28;20071;-66
2023/03/18 07:58:34;;;;;;;6.00;4.50;;;;;;;10.90;60.84;95518.66;4949268;28;20032;-67
2023/03/18 08:01:00;;;;;;;7.22;4.25;;;;;;;10.97;63.08;95524.19;4948061;28;20051;-66
2023/03/18 08:03:26;;;;;;;5.43;3.53;;;;;;;11.10;61.16;95522.00;4948481;28;20480;-67
2023/03/18 08:05:52;;;;;;;7.38;3.45;;;;;;;10.93;60.35;95522.78;4946741;28;20150;-67
2023/03/18 08:08:17;;;;;;;5.13;3.47;;;;;;;10.94;60.11;95519.19;4945258;28;20145;-67
2023/03/18 08:10:43;;;;;;;6.25;4.30;;;;;;;10.97;61.13;95517.09;4948511;28;20031;-67
2023/03/18 08:13:08;;;;;;;3.90;3.50;;;;;;;10.95;59.92;95516.41;4946163;28;20039;-67
2023/03/18 08:15:34;;;;;;;5.80;3.70;;;;;;;11.41;58.70;95519.00;4950977;28;20043;-67
2023/03/18 08:17:59;;;;;;;4.35;3.50;;;;;;;11.40;57.30;95519.13;4949236;28;20054;-67
2023/03/18 08:20:26;;;;;;;5.82;3.53;;;;;;;11.24;59.10;95530.38;4951809;28;20035;-66
2023/03/18 08:22:51;;;;;;;4.50;3.28;;;;;;;11.36;58.14;95518.59;4948616;28;20460;-68
2023/03/18 08:25:17;;;;;;;6.70;3.90;;;;;;;11.33;58.03;95516.28;4964388;28;20028;-69
2023/03/18 08:27:42;;;;;;;9.27;3.00;;;;;;;11.56;55.75;95510.53;4947775;28;20031;-68
2023/03/18 08:30:09;;;;;;;5.55;3.45;;;;;;;11.39;55.29;95514.84;4948959;28;20110;-68
2023/03/18 08:32:34;;;;;;;5.13;3.42;;;;;;;11.52;56.92;95506.56;4966254;28;20055;-66
2023/03/18 08:35:00;;;;;;;6.85;3.50;;;;;;;11.64;56.11;95505.34;4950170;28;20476;-65
2023/03/18 08:37:27;;;;;;;5.40;3.05;;;;;;;11.64;54.32;95507.97;4946849;28;20042;-66
2023/03/18 08:39:53;;;;;;;6.07;3.33;;;;;;;11.39;55.25;95499.88;4951712;28;20031;-64
2023/03/18 08:42:19;;;;;;;6.00;3.45;;;;;;;11.12;55.38;95517.41;4952652;28;20158;-67
2023/03/18 08:44:44;;;;;;;4.82;3.70;;;;;;;11.21;55.44;95510.41;4945424;28;20121;-65
2023/03/18 08:47:09;;;;;;;4.20;3.30;;;;;;;10.94;55.92;95512.13;4946211;28;20106;-66
2023/03/18 08:49:35;;;;;;;7.70;4.07;;;;;;;11.09;55.90;95519.53;4946282;28;20029;-67
2023/03/18 08:52:01;;;;;;;4.65;3.45;;;;;;;11.13;54.70;95508.50;4954885;28;20061;-64
2023/03/18 08:54:27;;;;;;;5.72;3.65;;;;;;;10.84;56.39;95512.19;4951149;28;20046;-65
2023/03/18 08:56:54;;;;;;;6.10;3.83;;;;;;;11.16;54.42;95510.03;4946782;28;20040;-66
2023/03/18 08:59:20;;;;;;;5.60;3.60;;;;;;;10.87;55.65;95511.88;4950640;28;20063;-65
2023/03/18 09:01:46;;;;;;;6.38;3.50;;;;;;;10.84;55.27;95506.91;4952608;28;20469;-68
2023/03/18 09:04:12;;;;;;;7.35;3.45;;;;;;;10.36;57.11;95519.31;4946537;28;20055;-68
2023/03/18 09:06:37;;;;;;;6.57;4.18;;;;;;;10.32;58.33;95508.25;4947171;28;20070;-67
2023/03/18 09:09:03;;;;;;;4.82;3.30;;;;;;;10.34;58.56;95512.56;4952853;28;21092;-68
2023/03/18 09:11:28;;;;;;;6.55;3.50;;;;;;;10.31;58.27;95506.59;4951432;28;20539;-68
2023/03/18 09:13:54;;;;;;;4.40;3.25;;;;;;;10.69;56.21;95511.84;4946633;28;20073;-68
2023/03/18 09:16:19;;;;;;;4.03;3.15;;;;;;;10.51;56.17;95501.28;4941374;28;20049;-68
2023/03/18 09:18:45;;;;;;;3.20;3.00;;;;;;;10.21;57.03;95503.16;4938126;28;20047;-68
2023/03/18 09:21:11;;;;;;;6.05;3.80;;;;;;;10.09;58.20;95499.88;4952016;28;20130;-68
2023/03/18 09:23:36;;;;;;;9.73;4.10;;;;;;;9.83;58.48;95508.41;4958597;28;20900;-67
2023/03/18 09:26:02;;;;;;;8.48;3.85;;;;;;;9.78;59.02;95505.38;4956131;28;20106;-67
2023/03/18 09:28:27;;;;;;;6.35;4.60;;;;;;;9.51;60.85;95504.31;4957208;28;20082;-67
2023/03/18 09:30:54;;;;;;;5.97;4.55;;;;;;;9.60;60.54;95498.22;4956259;28;20039;-67
2023/03/18 09:33:21;;;;;;;7.28;4.80;;;;;;;9.55;60.19;95499.59;4957642;28;20197;-69
2023/03/18 09:35:47;;;;;;;4.10;3.70;;;;;;;9.60;59.93;95506.09;4958707;28;20028;-68
2023/03/18 09:38:18;;;;;;;4.55;3.92;;;;;;;9.86;59.36;95508.13;4955346;28;20094;-67
2023/03/18 09:41:12;;;;;;;6.30;4.28;;;;;;;10.22;59.45;95506.63;4956529;28;20550;-67
2023/03/18 09:44:01;;;;;;;9.07;5.18;;;;;;;10.59;58.98;95504.00;4936518;29;20032;-68
2023/03/18 09:47:17;;;;;;;12.93;4.40;;;;;;;10.67;58.33;95499.81;4952232;28;20101;-68
2023/03/18 09:50:04;;;;;;;8.52;4.50;;;;;;;10.73;58.06;95500.03;4873110;29;20033;-69
2023/03/18 09:52:45;;;;;;;8.50;4.35;;;;;;;11.01;56.69;95507.09;4874859;29;20143;-69
2023/03/18 09:55:27;;;;;;;5.18;3.92;;;;;;;11.37;55.32;95499.19;4941000;28;20173;-69
2023/03/18 09:57:57;;;;;;;4.80;3.38;;;;;;;11.65;54.73;95514.91;4958379;28;20098;-68
2023/03/18 10:00:32;;;;;;;7.68;3.60;;;;;;;11.71;54.24;95519.56;4955896;28;20055;-69
2023/03/18 10:03:00;;;;;;;;;;;;;;;11.70;54.24;95511.78;4956360;28;20094;-68
2023/03/18 10:05:32;;;;;;;3.97;3.42;;;;;;;11.63;55.06;95511.59;4958595;28;19918;-69
2023/03/18 10:08:05;;;;;;;8.23;4.00;;;;;;;12.03;54.82;95504.97;4956932;28;20031;-68
2023/03/18 10:10:37;;;;;;;7.00;3.67;;;;;;;12.46;52.68;95512.13;4957497;28;20035;-69
2023/03/18 10:13:17;;;;;;;6.93;3.38;;;;;;;12.75;52.30;95506.47;4957192;28;20058;-69
2023/03/18 10:15:47;;;;;;;5.75;3.60;;;;;;;12.94;50.88;95509.00;4957528;28;20031;-68
2023/03/18 10:18:23;;;;;;;5.38;3.45;;;;;;;13.42;49.87;95511.88;4955543;28;20050;-69
2023/03/18 10:21:10;;;;;;;3.97;3.17;;;;;;;13.86;46.78;95513.41;4953408;28;20115;-69
2023/03/18 10:23:42;;;;;;;6.10;3.10;;;;;;;13.69;46.89;95508.13;4953370;28;20027;-69
2023/03/18 10:26:18;;;;;;;4.28;3.10;;;;;;;13.90;46.38;95501.50;4954105;28;20019;-69
2023/03/18 10:29:17;;;;;;;4.75;2.90;;;;;;;13.60;47.27;95501.19;4957797;29;20055;-69
2023/03/18 10:31:52;;;;;;;2.47;2.13;;;;;;;14.13;45.88;95503.44;4952791;28;20031;-68
2023/03/18 10:34:21;;;;;;;3.28;2.20;;;;;;;14.31;44.36;95501.41;4953940;28;20420;-68
2023/03/18 10:37:16;;;;;;;3.78;2.35;;;;;;;14.44;45.65;95500.03;4953778;28;20035;-70
2023/03/18 10:39:44;;;;;;;3.00;2.07;;;;;;;15.33;45.44;95498.97;4954311;28;20037;-69
2023/03/18 10:42:30;;;;;;;3.17;2.83;;;;;;;15.18;45.47;95501.53;4949795;28;20031;-68
2023/03/18 10:45:14;;;;;;;7.95;3.20;;;;;;;15.40;42.78;95499.09;4956279;28;20126;-69
2023/03/18 10:47:43;;;;;;;3.60;2.80;;;;;;;15.75;43.11;95508.25;4948107;28;20030;-69
2023/03/18 10:50:17;;;;;;;3.95;2.95;;;;;;;15.49;43.92;95503.34;4948975;28;20058;-69
2023/03/18 10:52:53;;;;;;;3.35;2.85;;;;;;;15.22;43.68;95500.19;4954036;28;20035;-69
2023/03/18 10:55:24;;;;;;;3.38;2.80;;;;;;;14.66;46.13;95497.63;4951366;28;20115;-69
2023/03/18 10:57:50;;;;;;;6.00;4.05;;;;;;;15.12;44.63;95495.13;4956628;28;20027;-69
2023/03/18 11:00:31;;;;;;;4.22;3.63;;;;;;;15.68;43.54;95495.88;4953801;28;20420;-69
2023/03/18 11:02:58;;;;;;;5.43;3.75;;;;;;;15.90;42.40;95494.25;4954183;28;20035;-68
2023/03/18 11:05:34;;;;;;;5.82;3.53;;;;;;;16.51;42.71;95487.97;4956725;28;20049;-69
2023/03/18 11:08:07;;;;;;;7.00;3.45;;;;;;;16.82;41.47;95488.78;4954924;28;20106;-69
2023/03/18 11:10:47;;;;;;;5.20;3.30;;;;;;;17.22;39.34;95489.22;4955300;28;20030;-69
2023/03/18 11:13:16;;;;;;;7.07;3.92;;;;;;;17.88;40.20;95485.53;4951096;28;20027;-69
2023/03/18 11:15:48;;;;;;;5.65;4.13;;;;;;;18.63;37.38;95480.69;4953387;28;20610;-69
2023/03/18 11:18:18;;;;;;;9.07;4.78;;;;;;;19.01;36.50;95477.59;4955650;28;20035;-69
2023/03/18 11:20:46;;;;;;;5.63;3.78;;;;;;;18.83;35.70;95481.59;4957142;28;20042;-68
2023/03/18 11:23:55;;;;;;;7.25;3.45;;;;;;;18.97;35.24;95474.47;4953115;28;20023;-69
2023/03/18 11:26:28;;;;;;;5.28;3.50;;;;;;;18.90;34.74;95479.81;4952745;28;20035;-69
2023/03/18 11:29:01;;;;;;;6.97;3.90;;;;;;;18.99;34.44;95479.66;4952511;28;20106;-69
2023/03/18 11:31:27;;;;;;;5.43;3.70;;;;;;;19.19;34.13;95477.03;4951809;28;20052;-67
2023/03/18 11:33:59;;;;;;;4.60;3.60;;;;;;;19.42;36.29;95482.03;4950324;28;20069;-66
2023/03/18 11:36:27;;;;;;;8.00;4.50;;;;;;;19.45;34.82;95478.94;4957751;28;20054;-66
2023/03/18 11:38:58;;;;;;;8.65;4.18;;;;;;;18.67;36.43;95474.78;4955213;28;20038;-66
2023/03/18 11:41:26;;;;;;;5.10;3.80;;;;;;;18.25;38.57;95472.09;4956921;28;20086;-66